Time;durP1;ratioP1;P1;durP2;ratioP2;P2;SDS_P1;SDS_P2;PMS_P1;PMS_P2;Temp;Humidity;BMP_temperature;BMP_pressure;BME280_temperature;BME280_humidity;BME280_pressure;Samples;Min_cycle;Max_cycle;Signal;HPM_P1;HPM_P2
2022/11/01 00:00:04;;;;;;;8.30;5.17;;;;;;;;;;5289537;28;20706;-81
2022/11/01 00:02:35;;;;;;;12.23;6.00;;;;;;;;;;5290115;28;20620;-81
2022/11/01 00:05:07;;;;;;;11.63;5.50;;;;;;;;;;5297673;28;20024;-81
2022/11/01 00:07:38;;;;;;;12.75;5.68;;;;;;;;;;5296648;28;20291;-81
2022/11/01 00:10:09;;;;;;;13.30;5.13;;;;;;;;;;5296925;28;20340;-81
2022/11/01 00:12:40;;;;;;;10.95;4.78;;;;;;;;;;5286154;28;20116;-81
2022/11/01 00:15:12;;;;;;;12.18;5.72;;;;;;;;;;5283740;28;20423;-80
2022/11/01 00:17:43;;;;;;;12.23;5.20;;;;;;;;;;5293915;28;20032;-81
2022/11/01 00:20:15;;;;;;;15.25;5.53;;;;;;;;;;5296088;28;20024;-80
2022/11/01 00:22:46;;;;;;;10.55;4.72;;;;;;;;;;5284683;28;20032;-80
2022/11/01 00:25:17;;;;;;;10.90;4.53;;;;;;;;;;5290335;28;20021;-80
2022/11/01 00:27:49;;;;;;;10.95;4.72;;;;;;;;;;5275835;28;20025;-80
2022/11/01 00:30:20;;;;;;;9.63;4.80;;;;;;;;;;5267408;28;20032;-80
2022/11/01 00:32:51;;;;;;;11.97;4.90;;;;;;;;;;5294728;28;20794;-81
2022/11/01 00:35:23;;;;;;;12.50;4.60;;;;;;;;;;5284627;28;20481;-80
2022/11/01 00:37:54;;;;;;;8.82;4.22;;;;;;;;;;5282322;28;20385;-80
2022/11/01 00:40:25;;;;;;;10.60;4.57;;;;;;;;;;5297091;28;20028;-80
2022/11/01 00:42:56;;;;;;;8.95;4.22;;;;;;;;;;5290730;28;20056;-80
2022/11/01 00:45:27;;;;;;;10.10;4.80;;;;;;;;;;5289429;28;20044;-80
2022/11/01 00:47:59;;;;;;;10.13;4.07;;;;;;;;;;5268142;28;20032;-80
2022/11/01 00:50:30;;;;;;;9.35;3.88;;;;;;;;;;5300463;28;20289;-80
2022/11/01 00:53:01;;;;;;;9.73;4.25;;;;;;;;;;5262489;28;20029;-80
2022/11/01 00:55:32;;;;;;;7.77;4.00;;;;;;;;;;5275277;28;20025;-80
2022/11/01 00:58:03;;;;;;;10.07;4.25;;;;;;;;;;5277283;28;20083;-80
2022/11/01 01:00:35;;;;;;;11.77;4.07;;;;;;;;;;5275321;28;20056;-80
2022/11/01 01:03:06;;;;;;;8.10;4.10;;;;;;;;;;5276918;28;20029;-80
2022/11/01 01:05:37;;;;;;;6.10;4.13;;;;;;;;;;5278029;28;20035;-80
2022/11/01 01:08:09;;;;;;;8.23;4.20;;;;;;;;;;5276450;28;20020;-80
2022/11/01 01:10:40;;;;;;;6.63;4.10;;;;;;;;;;5273523;28;20284;-80
2022/11/01 01:13:11;;;;;;;12.33;4.27;;;;;;;;;;5276426;28;20025;-80
2022/11/01 01:15:42;;;;;;;8.73;4.30;;;;;;;;;;5277533;28;20555;-80
2022/11/01 01:18:13;;;;;;;9.55;4.40;;;;;;;;;;5274655;28;20029;-80
2022/11/01 01:20:45;;;;;;;16.97;4.37;;;;;;;;;;5278968;28;20037;-80
2022/11/01 01:23:16;;;;;;;11.50;4.33;;;;;;;;;;5275836;28;20305;-80
2022/11/01 01:25:47;;;;;;;10.67;4.70;;;;;;;;;;5275960;28;20041;-80
2022/11/01 01:28:18;;;;;;;12.50;5.43;;;;;;;;;;5276263;28;20108;-80
2022/11/01 01:30:49;;;;;;;9.27;4.97;;;;;;;;;;5275049;28;20035;-80
2022/11/01 01:33:20;;;;;;;13.50;4.57;;;;;;;;;;5277600;28;20028;-80
2022/11/01 01:35:52;;;;;;;11.00;4.73;;;;;;;;;;5276248;28;20671;-80
2022/11/01 01:38:23;;;;;;;11.37;4.60;;;;;;;;;;5280687;28;20025;-80
2022/11/01 01:40:54;;;;;;;9.70;3.90;;;;;;;;;;5278029;28;20130;-80
2022/11/01 01:43:39;;;;;;;11.68;4.80;;;;;;;;;;5276027;28;20040;-80
2022/11/01 01:46:10;;;;;;;10.95;4.75;;;;;;;;;;5274354;28;20144;-80
2022/11/01 01:48:43;;;;;;;11.43;5.20;;;;;;;;;;5277539;28;20482;-80
2022/11/01 01:51:16;;;;;;;7.05;4.22;;;;;;;;;;5259927;28;20040;-80
2022/11/01 01:53:49;;;;;;;11.60;4.72;;;;;;;;;;5260209;28;20022;-80
2022/11/01 01:56:27;;;;;;;9.75;4.57;;;;;;;;;;5277288;28;20388;-80
2022/11/01 01:59:04;;;;;;;8.80;4.57;;;;;;;;;;5278012;28;20385;-80
2022/11/01 02:01:36;;;;;;;9.55;4.10;;;;;;;;;;5274435;28;20033;-80
2022/11/01 02:04:09;;;;;;;10.50;4.18;;;;;;;;;;5260958;28;20086;-79
2022/11/01 02:06:40;;;;;;;9.52;4.50;;;;;;;;;;5279056;28;20466;-79
2022/11/01 02:09:12;;;;;;;7.50;3.70;;;;;;;;;;5281526;28;20017;-80
2022/11/01 02:11:43;;;;;;;12.63;4.57;;;;;;;;;;5278294;28;20047;-80
2022/11/01 02:14:15;;;;;;;9.23;4.43;;;;;;;;;;5280592;28;20036;-80
2022/11/01 02:16:53;;;;;;;9.50;3.78;;;;;;;;;;5281739;28;20025;-80
2022/11/01 02:19:39;;;;;;;8.13;3.95;;;;;;;;;;5278283;28;21329;-80
2022/11/01 02:22:30;;;;;;;11.23;3.83;;;;;;;;;;5278289;28;20037;-80
2022/11/01 02:25:20;;;;;;;9.98;4.88;;;;;;;;;;5277557;28;20025;-80
2022/11/01 02:28:06;;;;;;;9.07;4.07;;;;;;;;;;5278513;28;20049;-80
2022/11/01 02:30:43;;;;;;;8.18;4.50;;;;;;;;;;5274212;28;20036;-80
2022/11/01 02:33:23;;;;;;;7.85;3.90;;;;;;;;;;5278659;28;20033;-80
2022/11/01 02:35:58;;;;;;;9.98;4.47;;;;;;;;;;5278652;28;21760;-80
2022/11/01 02:38:36;;;;;;;8.20;4.03;;;;;;;;;;5275747;28;20385;-80
2022/11/01 02:41:19;;;;;;;7.20;3.55;;;;;;;;;;5279112;28;20037;-80
2022/11/01 02:44:23;;;;;;;9.20;3.90;;;;;;;;;;5278430;28;20029;-80
2022/11/01 02:47:01;;;;;;;8.30;4.82;;;;;;;;;;5248671;28;20053;-80
2022/11/01 02:49:34;;;;;;;9.20;3.88;;;;;;;;;;5280183;28;20434;-80
2022/11/01 02:52:07;;;;;;;9.02;3.78;;;;;;;;;;5277342;28;20190;-80
2022/11/01 02:54:39;;;;;;;9.57;4.50;;;;;;;;;;5278585;28;20032;-80
2022/11/01 02:57:26;;;;;;;8.73;4.05;;;;;;;;;;5280265;28;20066;-80
2022/11/01 03:00:07;;;;;;;7.88;4.22;;;;;;;;;;5278276;28;20123;-80
2022/11/01 03:02:40;;;;;;;12.77;4.68;;;;;;;;;;5279349;28;20033;-80
2022/11/01 03:05:18;;;;;;;8.63;4.43;;;;;;;;;;5278652;28;20025;-80
2022/11/01 03:07:51;;;;;;;9.88;4.40;;;;;;;;;;5282311;28;20024;-80
2022/11/01 03:10:26;;;;;;;7.05;4.07;;;;;;;;;;5289900;28;20029;-81
2022/11/01 03:13:04;;;;;;;6.97;4.00;;;;;;;;;;5273645;28;20025;-80
2022/11/01 03:15:40;;;;;;;9.85;4.22;;;;;;;;;;5253569;28;20473;-80
2022/11/01 03:18:18;;;;;;;7.82;3.55;;;;;;;;;;5278012;28;20369;-80
2022/11/01 03:20:55;;;;;;;9.82;4.00;;;;;;;;;;5279830;28;20082;-80
2022/11/01 03:23:35;;;;;;;9.27;3.30;;;;;;;;;;5279024;28;20437;-80
2022/11/01 03:26:07;;;;;;;4.25;2.78;;;;;;;;;;5278634;28;20033;-80
2022/11/01 03:28:40;;;;;;;7.72;2.92;;;;;;;;;;5278067;28;20108;-80
2022/11/01 03:31:17;;;;;;;5.80;2.47;;;;;;;;;;5282299;28;21747;-80
2022/11/01 03:33:53;;;;;;;7.35;2.20;;;;;;;;;;5278298;28;20032;-80
2022/11/01 03:36:26;;;;;;;6.50;2.10;;;;;;;;;;5280320;28;20120;-80
2022/11/01 03:39:03;;;;;;;7.88;2.45;;;;;;;;;;5275829;28;20386;-80
2022/11/01 03:41:38;;;;;;;4.05;2.65;;;;;;;;;;5275186;28;20055;-81
2022/11/01 03:44:11;;;;;;;4.30;1.77;;;;;;;;;;5274701;28;20026;-80
2022/11/01 03:46:42;;;;;;;3.90;1.50;;;;;;;;;;5278901;28;20084;-81
2022/11/01 03:49:17;;;;;;;4.00;1.50;;;;;;;;;;5277877;28;20455;-81
2022/11/01 03:51:49;;;;;;;2.40;1.30;;;;;;;;;;5278886;28;20028;-80
2022/11/01 03:54:20;;;;;;;8.88;1.58;;;;;;;;;;5265923;28;20021;-81
2022/11/01 03:56:51;;;;;;;2.30;0.93;;;;;;;;;;5282193;28;20028;-81
2022/11/01 03:59:22;;;;;;;4.13;0.90;;;;;;;;;;5283470;28;20416;-80
2022/11/01 04:01:54;;;;;;;3.50;0.93;;;;;;;;;;5262965;28;20029;-81
2022/11/01 04:04:25;;;;;;;2.93;0.90;;;;;;;;;;5281655;28;20151;-80
2022/11/01 04:06:56;;;;;;;3.73;0.87;;;;;;;;;;5278843;28;20431;-80
2022/11/01 04:09:27;;;;;;;4.33;1.20;;;;;;;;;;5282585;28;20302;-81
2022/11/01 04:11:58;;;;;;;4.65;1.13;;;;;;;;;;5262063;28;20323;-80
2022/11/01 04:20:33;;;;;;;1.67;1.08;;;;;;;;;;5241306;28;20033;-80
2022/11/01 04:23:05;;;;;;;3.78;0.95;;;;;;;;;;5261985;28;20037;-81
2022/11/01 04:25:37;;;;;;;3.15;0.80;;;;;;;;;;5278244;28;20503;-81
2022/11/01 04:28:08;;;;;;;4.63;0.93;;;;;;;;;;5278126;28;20037;-81
2022/11/01 04:30:39;;;;;;;2.83;1.00;;;;;;;;;;5276774;28;20374;-80
2022/11/01 04:33:10;;;;;;;2.85;0.82;;;;;;;;;;5277404;28;20040;-81
2022/11/01 04:35:42;;;;;;;3.37;1.10;;;;;;;;;;5278553;28;20104;-81
2022/11/01 04:38:13;;;;;;;3.30;1.00;;;;;;;;;;5276701;28;20040;-80
2022/11/01 04:40:44;;;;;;;1.92;0.80;;;;;;;;;;5275008;28;20028;-81
2022/11/01 04:43:15;;;;;;;5.10;0.80;;;;;;;;;;5259021;28;20033;-81
2022/11/01 04:45:52;;;;;;;1.93;0.97;;;;;;;;;;5275113;28;20053;-80
2022/11/01 04:48:23;;;;;;;1.83;0.60;;;;;;;;;;5272086;28;20667;-81
2022/11/01 04:50:54;;;;;;;3.45;1.40;;;;;;;;;;5276580;28;20094;-80
2022/11/01 04:53:26;;;;;;;4.38;0.80;;;;;;;;;;5274079;28;20152;-80
2022/11/01 04:55:57;;;;;;;4.67;1.00;;;;;;;;;;5277941;28;20041;-80
2022/11/01 04:58:28;;;;;;;3.27;0.60;;;;;;;;;;5276996;28;20898;-80
2022/11/01 05:01:03;;;;;;;2.33;0.70;;;;;;;;;;5274957;28;20397;-81
2022/11/01 05:03:34;;;;;;;2.03;1.25;;;;;;;;;;5276029;28;20021;-80
2022/11/01 05:06:06;;;;;;;1.87;0.90;;;;;;;;;;5276362;28;20052;-80
2022/11/01 05:08:37;;;;;;;2.53;0.80;;;;;;;;;;5274228;28;20028;-80
2022/11/01 05:11:08;;;;;;;4.37;1.10;;;;;;;;;;5276516;28;20438;-80
2022/11/01 05:13:39;;;;;;;2.03;0.60;;;;;;;;;;5276325;28;20450;-80
2022/11/01 05:16:10;;;;;;;3.33;0.80;;;;;;;;;;5277342;28;20044;-80
2022/11/01 05:18:41;;;;;;;2.93;1.10;;;;;;;;;;5275841;28;20033;-80
2022/11/01 05:21:13;;;;;;;5.93;0.90;;;;;;;;;;5274124;28;20029;-80
2022/11/01 05:23:46;;;;;;;2.83;0.83;;;;;;;;;;5277313;28;20037;-80
2022/11/01 05:26:17;;;;;;;4.35;0.90;;;;;;;;;;5274655;28;20438;-80
2022/11/01 05:28:48;;;;;;;8.38;0.93;;;;;;;;;;5274959;28;20037;-80
2022/11/01 05:31:20;;;;;;;5.28;1.63;;;;;;;;;;5275020;28;20504;-80
2022/11/01 05:33:51;;;;;;;3.38;0.95;;;;;;;;;;5273675;28;20053;-80
2022/11/01 05:36:22;;;;;;;2.87;0.73;;;;;;;;;;5272470;28;20033;-80
2022/11/01 05:38:56;;;;;;;3.77;1.23;;;;;;;;;;5281349;28;20071;-80
2022/11/01 05:41:28;;;;;;;4.93;1.25;;;;;;;;;;5279692;28;20021;-80
2022/11/01 05:43:59;;;;;;;2.03;0.80;;;;;;;;;;5281857;28;20107;-79
2022/11/01 05:46:30;;;;;;;2.40;1.00;;;;;;;;;;5278986;28;20047;-80
2022/11/01 05:49:01;;;;;;;5.53;0.90;;;;;;;;;;5283388;28;20043;-79
2022/11/01 05:51:33;;;;;;;3.83;0.80;;;;;;;;;;5280641;28;20393;-80
2022/11/01 05:54:04;;;;;;;7.20;1.10;;;;;;;;;;5276576;28;20279;-79
2022/11/01 05:56:35;;;;;;;8.77;1.25;;;;;;;;;;5279293;28;20091;-80
2022/11/01 05:59:06;;;;;;;5.83;1.37;;;;;;;;;;5280844;28;20029;-80
2022/11/01 06:01:37;;;;;;;7.88;2.00;;;;;;;;;;5280020;28;20029;-80
2022/11/01 06:04:09;;;;;;;11.20;1.90;;;;;;;;;;5281652;28;20025;-80
2022/11/01 06:06:40;;;;;;;12.63;1.40;;;;;;;;;;5260389;28;20836;-80
2022/11/01 06:09:11;;;;;;;8.67;1.70;;;;;;;;;;5278507;28;20036;-80
2022/11/01 06:11:42;;;;;;;8.40;1.50;;;;;;;;;;5279902;28;20282;-80
2022/11/01 06:14:13;;;;;;;6.80;1.77;;;;;;;;;;5289331;28;20307;-80
2022/11/01 06:16:45;;;;;;;8.88;1.40;;;;;;;;;;5294894;28;20617;-80
2022/11/01 06:19:16;;;;;;;5.22;1.33;;;;;;;;;;5297098;28;20059;-80
2022/11/01 06:21:47;;;;;;;9.67;1.83;;;;;;;;;;5290809;28;20028;-80
2022/11/01 06:24:18;;;;;;;8.25;1.38;;;;;;;;;;5286375;28;20060;-80
2022/11/01 06:26:49;;;;;;;6.37;1.30;;;;;;;;;;5274748;28;20090;-80
2022/11/01 06:29:20;;;;;;;8.43;1.40;;;;;;;;;;5279228;28;20025;-80
2022/11/01 06:31:52;;;;;;;5.20;1.10;;;;;;;;;;5278940;28;20723;-80
2022/11/01 06:34:23;;;;;;;8.93;1.08;;;;;;;;;;5278262;28;20381;-80
2022/11/01 06:36:54;;;;;;;8.43;1.63;;;;;;;;;;5264779;28;20115;-80
2022/11/01 06:39:25;;;;;;;6.65;1.38;;;;;;;;;;5280277;28;20017;-80
2022/11/01 06:41:56;;;;;;;10.02;1.45;;;;;;;;;;5279366;28;20041;-80
2022/11/01 06:44:28;;;;;;;5.75;1.02;;;;;;;;;;5260016;28;20373;-80
2022/11/01 06:46:59;;;;;;;6.07;1.57;;;;;;;;;;5273511;28;20132;-79
2022/11/01 06:49:31;;;;;;;8.20;1.93;;;;;;;;;;5273826;28;20280;-80
2022/11/01 06:52:03;;;;;;;10.67;2.73;;;;;;;;;;5276623;28;20272;-79
2022/11/01 06:54:35;;;;;;;6.32;2.08;;;;;;;;;;5277678;28;20267;-79
2022/11/01 06:57:06;;;;;;;9.35;1.67;;;;;;;;;;5278842;28;20469;-79
2022/11/01 06:59:38;;;;;;;13.80;1.98;;;;;;;;;;5281798;28;20029;-79
2022/11/01 07:02:09;;;;;;;9.90;1.90;;;;;;;;;;5261751;28;20032;-80
2022/11/01 07:04:40;;;;;;;8.02;1.80;;;;;;;;;;5274622;28;20087;-80
2022/11/01 07:07:12;;;;;;;11.25;1.75;;;;;;;;;;5280517;28;20437;-80
2022/11/01 07:09:43;;;;;;;8.23;1.40;;;;;;;;;;5270920;28;20033;-80
2022/11/01 07:12:14;;;;;;;7.50;1.60;;;;;;;;;;5281075;28;20036;-80
2022/11/01 07:14:45;;;;;;;5.57;1.87;;;;;;;;;;5267310;28;20269;-80
2022/11/01 07:17:16;;;;;;;6.47;1.40;;;;;;;;;;5267331;28;20349;-80
2022/11/01 07:19:47;;;;;;;8.53;1.53;;;;;;;;;;5282899;28;20280;-79
2022/11/01 07:22:19;;;;;;;11.70;2.63;;;;;;;;;;5280532;28;20288;-80
2022/11/01 07:24:50;;;;;;;10.40;1.90;;;;;;;;;;5281989;28;20494;-80
2022/11/01 07:27:21;;;;;;;10.27;2.20;;;;;;;;;;5284160;28;20037;-80
2022/11/01 07:29:52;;;;;;;8.13;1.33;;;;;;;;;;5284247;28;20275;-80
2022/11/01 07:32:23;;;;;;;14.07;2.30;;;;;;;;;;5284286;28;20589;-80
2022/11/01 07:34:55;;;;;;;11.43;1.60;;;;;;;;;;5284010;28;20351;-80
2022/11/01 07:37:29;;;;;;;11.10;1.80;;;;;;;;;;5284340;28;20275;-79
2022/11/01 07:40:01;;;;;;;10.68;1.83;;;;;;;;;;5284276;28;20537;-79
2022/11/01 07:42:39;;;;;;;12.07;1.90;;;;;;;;;;5284710;28;20083;-80
2022/11/01 07:45:11;;;;;;;11.95;2.22;;;;;;;;;;5283020;28;20456;-80
2022/11/01 07:47:42;;;;;;;14.25;2.45;;;;;;;;;;5283993;28;20032;-80
2022/11/01 07:50:13;;;;;;;9.90;2.13;;;;;;;;;;5284266;28;20027;-80
2022/11/01 07:52:44;;;;;;;11.73;1.80;;;;;;;;;;5276324;28;20470;-80
2022/11/01 07:55:16;;;;;;;8.90;2.65;;;;;;;;;;5264991;28;20303;-80
2022/11/01 07:57:47;;;;;;;14.90;2.87;;;;;;;;;;5282912;28;20029;-80
2022/11/01 08:00:18;;;;;;;16.13;2.70;;;;;;;;;;5265351;28;20272;-80
2022/11/01 08:02:49;;;;;;;11.40;2.10;;;;;;;;;;5282978;28;20036;-80
2022/11/01 08:05:21;;;;;;;10.73;2.50;;;;;;;;;;5283929;28;20021;-80
2022/11/01 08:07:52;;;;;;;18.77;2.95;;;;;;;;;;5282859;28;20380;-80
2022/11/01 08:10:23;;;;;;;11.97;2.10;;;;;;;;;;5283455;28;20027;-81
2022/11/01 08:13:01;;;;;;;16.25;2.38;;;;;;;;;;5265095;28;20029;-80
2022/11/01 08:15:33;;;;;;;14.18;2.47;;;;;;;;;;5283909;28;20021;-80
2022/11/01 08:18:04;;;;;;;11.77;2.42;;;;;;;;;;5283738;28;20029;-80
2022/11/01 08:20:36;;;;;;;13.63;2.33;;;;;;;;;;5283974;28;20064;-80
2022/11/01 08:23:07;;;;;;;20.88;2.90;;;;;;;;;;5271355;28;20379;-80
2022/11/01 08:25:39;;;;;;;11.43;2.47;;;;;;;;;;5278837;28;20088;-80
2022/11/01 08:28:11;;;;;;;11.88;2.10;;;;;;;;;;5283463;28;20037;-80
2022/11/01 08:30:43;;;;;;;13.88;2.83;;;;;;;;;;5283155;28;20037;-80
2022/11/01 08:33:15;;;;;;;12.63;2.25;;;;;;;;;;5283451;28;20063;-80
2022/11/01 08:35:46;;;;;;;16.23;2.65;;;;;;;;;;5265184;28;20529;-80
2022/11/01 08:38:18;;;;;;;11.32;3.08;;;;;;;;;;5283232;28;20473;-80
2022/11/01 08:40:49;;;;;;;13.68;3.38;;;;;;;;;;5282623;28;20036;-80
2022/11/01 08:43:20;;;;;;;11.40;2.25;;;;;;;;;;5265856;28;20474;-80
2022/11/01 08:45:51;;;;;;;11.85;2.83;;;;;;;;;;5262027;28;20064;-80
2022/11/01 08:48:23;;;;;;;12.03;2.17;;;;;;;;;;5262341;28;20398;-80
2022/11/01 08:50:54;;;;;;;8.57;2.45;;;;;;;;;;5262818;28;20272;-81
2022/11/01 08:53:25;;;;;;;13.93;2.50;;;;;;;;;;5262452;28;20029;-81
2022/11/01 08:55:56;;;;;;;9.90;2.50;;;;;;;;;;5262432;28;20025;-81
2022/11/01 08:58:27;;;;;;;13.20;3.17;;;;;;;;;;5269048;28;20128;-81
2022/11/01 09:00:59;;;;;;;13.07;3.10;;;;;;;;;;5283064;28;20803;-81
2022/11/01 09:03:30;;;;;;;14.37;2.70;;;;;;;;;;5283477;28;20029;-80
2022/11/01 09:06:01;;;;;;;12.03;2.67;;;;;;;;;;5283655;28;20017;-81
2022/11/01 09:08:32;;;;;;;13.13;2.60;;;;;;;;;;5265251;28;20049;-81
2022/11/01 09:11:05;;;;;;;19.90;2.93;;;;;;;;;;5282576;28;20029;-81
2022/11/01 09:13:36;;;;;;;18.65;3.15;;;;;;;;;;5281118;28;20752;-81
2022/11/01 09:16:07;;;;;;;17.80;2.93;;;;;;;;;;5269159;28;20025;-81
2022/11/01 09:18:38;;;;;;;17.70;2.57;;;;;;;;;;5272306;28;20112;-81
2022/11/01 09:21:09;;;;;;;20.27;2.60;;;;;;;;;;5274215;28;20041;-80
2022/11/01 09:23:41;;;;;;;12.20;2.77;;;;;;;;;;5290275;28;20017;-81
2022/11/01 09:26:12;;;;;;;18.27;2.50;;;;;;;;;;5290154;28;20260;-80
2022/11/01 09:28:43;;;;;;;13.25;2.58;;;;;;;;;;5289682;28;20741;-80
2022/11/01 09:31:14;;;;;;;13.10;2.20;;;;;;;;;;5289536;28;20037;-80
2022/11/01 09:33:46;;;;;;;21.63;2.97;;;;;;;;;;5289635;28;20377;-79
2022/11/01 09:36:17;;;;;;;15.80;2.70;;;;;;;;;;5290903;28;20029;-80
2022/11/01 09:38:48;;;;;;;14.35;2.60;;;;;;;;;;5291030;28;20097;-80
2022/11/01 09:41:46;;;;;;;13.10;2.40;;;;;;;;;;5290509;28;20029;-80
2022/11/01 09:44:24;;;;;;;14.55;2.17;;;;;;;;;;5290456;28;20104;-81
2022/11/01 09:46:57;;;;;;;12.00;2.65;;;;;;;;;;5289516;28;20052;-80
2022/11/01 09:49:32;;;;;;;18.35;2.85;;;;;;;;;;5291586;28;20485;-80
2022/11/01 09:52:04;;;;;;;20.52;2.75;;;;;;;;;;5291513;28;20440;-80
2022/11/01 09:54:35;;;;;;;14.70;2.60;;;;;;;;;;5291271;28;20035;-80
2022/11/01 09:57:25;;;;;;;23.80;3.35;;;;;;;;;;5289951;28;20025;-80
2022/11/01 10:00:05;;;;;;;22.98;3.53;;;;;;;;;;5289358;28;20036;-81
2022/11/01 10:02:54;;;;;;;19.02;3.10;;;;;;;;;;5271567;28;20460;-80
2022/11/01 10:05:34;;;;;;;18.73;3.38;;;;;;;;;;5290466;28;20094;-80
2022/11/01 10:08:08;;;;;;;14.02;2.55;;;;;;;;;;5290332;28;20037;-80
2022/11/01 10:10:44;;;;;;;9.48;2.17;;;;;;;;;;5271555;28;20970;-80
2022/11/01 10:13:27;;;;;;;14.10;2.47;;;;;;;;;;5288037;28;20347;-79
2022/11/01 10:16:04;;;;;;;9.85;2.47;;;;;;;;;;5269761;28;20041;-81
2022/11/01 10:18:50;;;;;;;12.45;2.40;;;;;;;;;;5268702;28;20087;-80
2022/11/01 10:21:22;;;;;;;13.23;3.15;;;;;;;;;;5250488;28;20017;-81
2022/11/01 10:23:55;;;;;;;8.55;2.20;;;;;;;;;;5265230;28;20075;-81
2022/11/01 10:26:27;;;;;;;14.25;2.70;;;;;;;;;;5264730;28;20444;-81
2022/11/01 10:28:58;;;;;;;10.35;2.10;;;;;;;;;;5268801;28;20028;-81
2022/11/01 10:31:30;;;;;;;11.47;2.93;;;;;;;;;;5267194;28;20051;-81
2022/11/01 10:34:20;;;;;;;10.20;2.05;;;;;;;;;;5285246;28;20103;-81
2022/11/01 10:36:55;;;;;;;10.50;2.40;;;;;;;;;;5285457;28;20056;-81
2022/11/01 10:39:37;;;;;;;9.38;2.40;;;;;;;;;;5285398;28;20021;-81
2022/11/01 10:42:11;;;;;;;14.85;3.08;;;;;;;;;;5262399;28;20549;-81
2022/11/01 10:44:45;;;;;;;18.42;2.83;;;;;;;;;;5273253;28;20033;-81
2022/11/01 10:47:18;;;;;;;13.60;2.42;;;;;;;;;;5266844;28;20461;-81
2022/11/01 10:50:03;;;;;;;16.25;2.55;;;;;;;;;;5284920;28;20354;-81
2022/11/01 10:52:54;;;;;;;15.82;2.60;;;;;;;;;;5266418;28;20083;-81
2022/11/01 10:55:41;;;;;;;21.23;2.90;;;;;;;;;;5283804;28;20044;-81
2022/11/01 10:58:27;;;;;;;14.25;2.47;;;;;;;;;;5285255;28;20386;-81
2022/11/01 11:01:00;;;;;;;18.05;3.15;;;;;;;;;;5283867;28;20358;-81
2022/11/01 11:03:31;;;;;;;9.68;2.40;;;;;;;;;;5285229;28;20399;-80
2022/11/01 11:06:04;;;;;;;17.52;3.03;;;;;;;;;;5284568;28;20031;-81
2022/11/01 11:08:37;;;;;;;11.88;2.60;;;;;;;;;;5285407;28;20766;-81
2022/11/01 11:11:11;;;;;;;9.32;2.05;;;;;;;;;;5284472;28;20374;-81
2022/11/01 11:13:44;;;;;;;13.35;2.20;;;;;;;;;;5284753;28;20025;-81
2022/11/01 11:16:29;;;;;;;9.65;2.53;;;;;;;;;;5284277;28;20035;-80
2022/11/01 11:19:01;;;;;;;9.50;2.15;;;;;;;;;;5283321;28;20017;-81
2022/11/01 11:21:33;;;;;;;11.65;2.15;;;;;;;;;;5284684;28;20380;-80
2022/11/01 11:24:15;;;;;;;10.55;2.63;;;;;;;;;;5284428;28;20108;-80
2022/11/01 11:26:49;;;;;;;9.02;2.03;;;;;;;;;;5266203;28;20024;-81
2022/11/01 11:29:32;;;;;;;10.65;2.47;;;;;;;;;;5284479;28;20021;-81
2022/11/01 11:32:05;;;;;;;16.73;2.95;;;;;;;;;;5254931;28;20049;-81
2022/11/01 11:34:37;;;;;;;17.67;2.83;;;;;;;;;;5263474;28;20021;-81
2022/11/01 11:37:16;;;;;;;12.77;2.78;;;;;;;;;;5261536;28;20033;-81
2022/11/01 11:40:08;;;;;;;10.98;2.55;;;;;;;;;;5245095;28;20017;-81
2022/11/01 11:42:39;;;;;;;8.77;2.47;;;;;;;;;;5224867;28;20047;-81
2022/11/01 11:45:13;;;;;;;9.10;2.13;;;;;;;;;;5283644;28;20478;-81
2022/11/01 11:47:46;;;;;;;9.38;2.08;;;;;;;;;;5265996;28;20044;-81
2022/11/01 11:50:17;;;;;;;12.52;1.90;;;;;;;;;;5266167;28;20051;-81
2022/11/01 11:52:50;;;;;;;6.43;2.17;;;;;;;;;;5278444;28;20033;-81
2022/11/01 11:55:34;;;;;;;13.98;2.22;;;;;;;;;;5284178;28;20021;-81
2022/11/01 11:58:14;;;;;;;18.13;2.25;;;;;;;;;;5282999;28;20048;-81
2022/11/01 12:00:47;;;;;;;10.50;2.05;;;;;;;;;;5283209;28;20099;-81
2022/11/01 12:03:19;;;;;;;9.45;2.08;;;;;;;;;;5286132;28;20113;-80
2022/11/01 12:05:55;;;;;;;14.80;2.67;;;;;;;;;;5271013;28;20500;-81
2022/11/01 12:08:43;;;;;;;12.43;2.03;;;;;;;;;;5273942;28;20110;-81
2022/11/01 12:11:16;;;;;;;10.13;1.80;;;;;;;;;;5273032;28;20083;-81
2022/11/01 12:14:01;;;;;;;10.93;2.25;;;;;;;;;;5275512;28;20036;-80
2022/11/01 12:16:39;;;;;;;10.63;1.83;;;;;;;;;;5275145;28;20033;-81
2022/11/01 12:19:24;;;;;;;14.00;1.80;;;;;;;;;;5274528;28;20028;-81
2022/11/01 12:21:57;;;;;;;10.65;2.20;;;;;;;;;;5264411;28;20377;-81
2022/11/01 12:24:32;;;;;;;15.00;2.13;;;;;;;;;;5265418;28;20060;-80
2022/11/01 12:27:06;;;;;;;12.20;2.78;;;;;;;;;;5263684;28;20029;-80
2022/11/01 12:29:43;;;;;;;17.38;2.58;;;;;;;;;;5264490;28;20029;-81
2022/11/01 12:32:26;;;;;;;14.57;2.75;;;;;;;;;;5278180;28;20115;-81
2022/11/01 12:34:59;;;;;;;7.80;1.80;;;;;;;;;;5266449;28;20029;-80
2022/11/01 12:37:34;;;;;;;10.27;1.88;;;;;;;;;;5283256;28;20112;-81
2022/11/01 12:40:15;;;;;;;9.18;1.50;;;;;;;;;;5282670;28;20124;-80
2022/11/01 12:42:50;;;;;;;7.15;1.75;;;;;;;;;;5270179;28;20039;-80
2022/11/01 12:45:31;;;;;;;8.05;2.00;;;;;;;;;;5260974;28;20052;-80
2022/11/01 12:48:06;;;;;;;6.70;1.60;;;;;;;;;;5262237;28;20414;-80
2022/11/01 12:50:49;;;;;;;9.50;1.77;;;;;;;;;;5271966;28;20025;-80
2022/11/01 12:53:43;;;;;;;7.47;2.17;;;;;;;;;;5283667;28;20405;-79
2022/11/01 12:56:16;;;;;;;6.47;1.92;;;;;;;;;;5281262;28;21006;-80
2022/11/01 12:58:50;;;;;;;8.40;1.80;;;;;;;;;;5282896;28;20025;-81
2022/11/01 13:01:41;;;;;;;7.05;1.83;;;;;;;;;;5283124;28;20036;-80
2022/11/01 13:04:21;;;;;;;12.30;1.70;;;;;;;;;;5282985;28;20071;-80
2022/11/01 13:07:02;;;;;;;12.27;1.80;;;;;;;;;;5282328;28;20043;-81
2022/11/01 13:09:53;;;;;;;8.20;1.60;;;;;;;;;;5287405;28;20112;-80
2022/11/01 13:12:45;;;;;;;15.73;2.35;;;;;;;;;;5282453;28;20047;-81
2022/11/01 13:15:24;;;;;;;20.27;2.42;;;;;;;;;;5282883;28;20104;-80
2022/11/01 13:18:04;;;;;;;17.23;2.70;;;;;;;;;;5280817;28;20390;-80
2022/11/01 13:20:45;;;;;;;17.08;2.22;;;;;;;;;;5281362;28;20029;-80
2022/11/01 13:23:35;;;;;;;9.65;2.05;;;;;;;;;;5279414;28;20064;-80
2022/11/01 13:26:22;;;;;;;17.65;2.13;;;;;;;;;;5263602;28;20032;-80
2022/11/01 13:29:08;;;;;;;12.93;2.05;;;;;;;;;;5282511;28;20025;-81
2022/11/01 13:31:57;;;;;;;8.52;1.80;;;;;;;;;;5272902;28;20028;-81
2022/11/01 13:34:58;;;;;;;13.38;2.00;;;;;;;;;;5262127;28;20021;-80
2022/11/01 13:37:45;;;;;;;10.10;1.85;;;;;;;;;;5214891;28;20044;-80
2022/11/01 13:40:34;;;;;;;13.88;2.95;;;;;;;;;;5281099;28;20045;-80
2022/11/01 13:43:13;;;;;;;7.40;2.33;;;;;;;;;;5282369;28;20025;-80
2022/11/01 13:46:01;;;;;;;13.18;2.33;;;;;;;;;;5280891;28;20098;-80
2022/11/01 13:48:55;;;;;;;7.70;1.83;;;;;;;;;;5270985;28;20029;-81
2022/11/01 13:51:45;;;;;;;13.75;2.10;;;;;;;;;;5233302;28;20053;-80
2022/11/01 13:54:19;;;;;;;14.27;2.25;;;;;;;;;;5282504;28;20035;-80
2022/11/01 13:56:58;;;;;;;11.40;1.80;;;;;;;;;;5282388;28;20120;-80
2022/11/01 13:59:35;;;;;;;11.75;1.92;;;;;;;;;;5283433;28;20384;-80
2022/11/01 14:02:26;;;;;;;17.50;2.60;;;;;;;;;;5285474;28;20029;-80
2022/11/01 14:05:00;;;;;;;15.95;2.33;;;;;;;;;;5269253;28;20435;-80
2022/11/01 14:07:57;;;;;;;9.65;1.40;;;;;;;;;;5285731;28;20044;-80
2022/11/01 14:10:31;;;;;;;9.88;1.70;;;;;;;;;;5286641;28;20473;-80
2022/11/01 14:13:05;;;;;;;6.38;1.60;;;;;;;;;;5285794;28;20103;-81
2022/11/01 14:15:52;;;;;;;11.02;1.60;;;;;;;;;;5285526;28;20033;-80
2022/11/01 14:18:23;;;;;;;6.78;1.80;;;;;;;;;;5285894;28;20032;-81
2022/11/01 14:20:55;;;;;;;6.35;1.50;;;;;;;;;;5283917;28;20021;-80
2022/11/01 14:23:27;;;;;;;11.15;1.98;;;;;;;;;;5286033;28;20396;-81
2022/11/01 14:26:16;;;;;;;10.70;2.50;;;;;;;;;;5285145;28;20029;-80
2022/11/01 14:28:49;;;;;;;11.70;2.20;;;;;;;;;;5285646;28;20033;-80
2022/11/01 14:31:22;;;;;;;13.88;2.05;;;;;;;;;;5267944;28;20111;-80
2022/11/01 14:33:54;;;;;;;12.15;2.40;;;;;;;;;;5285041;28;20047;-81
2022/11/01 14:36:26;;;;;;;11.88;1.77;;;;;;;;;;5287488;28;20029;-80
2022/11/01 14:39:01;;;;;;;6.18;1.45;;;;;;;;;;5285831;28;20025;-80
2022/11/01 14:41:35;;;;;;;8.57;1.80;;;;;;;;;;5285391;28;20023;-80
2022/11/01 14:44:11;;;;;;;8.65;2.10;;;;;;;;;;5284797;28;20078;-80
2022/11/01 14:46:43;;;;;;;10.32;2.20;;;;;;;;;;5284616;28;20048;-80
2022/11/01 14:49:22;;;;;;;8.25;1.80;;;;;;;;;;5285964;28;20474;-81
2022/11/01 14:51:53;;;;;;;5.85;1.65;;;;;;;;;;5284927;28;20029;-81
2022/11/01 14:54:33;;;;;;;7.28;1.90;;;;;;;;;;5285213;28;20028;-81
2022/11/01 14:57:18;;;;;;;19.45;2.70;;;;;;;;;;5266732;28;20031;-81
2022/11/01 14:59:50;;;;;;;14.55;1.60;;;;;;;;;;5283682;28;20013;-81
2022/11/01 15:02:24;;;;;;;10.50;2.00;;;;;;;;;;5285534;28;20104;-81
2022/11/01 15:04:56;;;;;;;12.23;1.63;;;;;;;;;;5284131;28;20674;-81
2022/11/01 15:07:29;;;;;;;10.88;1.83;;;;;;;;;;5285019;28;20436;-81
2022/11/01 15:10:08;;;;;;;12.32;1.92;;;;;;;;;;5284620;28;20029;-81
2022/11/01 15:12:44;;;;;;;10.65;1.60;;;;;;;;;;5266123;28;20029;-81
2022/11/01 15:15:18;;;;;;;8.10;1.48;;;;;;;;;;5284352;28;20485;-81
2022/11/01 15:18:01;;;;;;;8.38;1.60;;;;;;;;;;5284231;28;20016;-81
2022/11/01 15:20:36;;;;;;;7.28;1.80;;;;;;;;;;5284865;28;20042;-81
2022/11/01 15:23:09;;;;;;;12.60;1.80;;;;;;;;;;5284965;28;20385;-81
2022/11/01 15:25:42;;;;;;;10.45;1.85;;;;;;;;;;5283918;28;20473;-81